Time;durP1;ratioP1;P1;durP2;ratioP2;P2;SDS_P1;SDS_P2;PMS_P1;PMS_P2;Temp;Humidity;BMP_temperature;BMP_pressure;BME280_temperature;BME280_humidity;BME280_pressure;Samples;Min_cycle;Max_cycle;Signal;HPM_P1;HPM_P2
2022/05/26 00:01:25;;;;;;;4.65;1.80;;;;;;;;;;5024431;28;20136;-70
2022/05/26 00:03:52;;;;;;;4.00;1.67;;;;;;;;;;5028563;28;20486;-71
2022/05/26 00:06:20;;;;;;;5.55;1.98;;;;;;;;;;5020914;28;20052;-71
2022/05/26 00:08:46;;;;;;;3.08;1.50;;;;;;;;;;5029044;28;20034;-71
2022/05/26 00:11:16;;;;;;;5.65;1.52;;;;;;;;;;5041719;28;20045;-72
2022/05/26 00:13:43;;;;;;;6.57;1.60;;;;;;;;;;5030362;28;20052;-73
2022/05/26 00:16:11;;;;;;;7.35;1.90;;;;;;;;;;5024147;28;20057;-71
2022/05/26 00:18:38;;;;;;;4.65;2.08;;;;;;;;;;5036315;28;20053;-71
2022/05/26 00:21:04;;;;;;;3.80;1.90;;;;;;;;;;5037664;28;20072;-70
2022/05/26 00:23:31;;;;;;;5.72;1.75;;;;;;;;;;5038078;28;20053;-72
2022/05/26 00:25:57;;;;;;;4.60;1.58;;;;;;;;;;5035296;28;20132;-70
2022/05/26 00:28:23;;;;;;;6.30;1.70;;;;;;;;;;5033800;28;20091;-71
2022/05/26 00:30:49;;;;;;;3.25;1.70;;;;;;;;;;5019439;28;20049;-70
2022/05/26 00:33:16;;;;;;;4.78;1.70;;;;;;;;;;5026764;28;20099;-70
2022/05/26 00:35:43;;;;;;;5.32;1.80;;;;;;;;;;5026378;28;20337;-70
2022/05/26 00:38:11;;;;;;;2.38;1.48;;;;;;;;;;5025810;28;20084;-71
2022/05/26 00:40:38;;;;;;;5.00;1.88;;;;;;;;;;5027636;28;20041;-72
2022/05/26 00:43:05;;;;;;;2.50;1.70;;;;;;;;;;5026848;28;20037;-70
2022/05/26 00:45:48;;;;;;;3.55;1.45;;;;;;;;;;5029436;28;20050;-69
2022/05/26 00:48:18;;;;;;;5.82;2.05;;;;;;;;;;5025479;28;20053;-70
2022/05/26 00:50:51;;;;;;;6.28;2.20;;;;;;;;;;5023108;28;20091;-72
2022/05/26 00:53:27;;;;;;;4.45;1.70;;;;;;;;;;5020647;28;20046;-73
2022/05/26 00:56:07;;;;;;;6.35;1.75;;;;;;;;;;5022827;28;20037;-70
2022/05/26 00:58:40;;;;;;;6.38;2.00;;;;;;;;;;5019936;28;20046;-70
2022/05/26 01:01:06;;;;;;;5.37;1.77;;;;;;;;;;5023665;28;20099;-70
2022/05/26 01:03:42;;;;;;;6.15;1.70;;;;;;;;;;5029583;28;20060;-69
2022/05/26 01:06:16;;;;;;;5.18;2.10;;;;;;;;;;5032402;28;20550;-71
2022/05/26 01:08:54;;;;;;;6.75;2.10;;;;;;;;;;5024971;28;20045;-71
2022/05/26 01:11:23;;;;;;;4.75;1.92;;;;;;;;;;5030524;28;20057;-70
2022/05/26 01:14:00;;;;;;;6.25;1.90;;;;;;;;;;5015941;28;20575;-71
2022/05/26 01:16:40;;;;;;;4.15;2.00;;;;;;;;;;5028968;28;20423;-69
2022/05/26 01:19:15;;;;;;;6.00;1.92;;;;;;;;;;5016918;28;20057;-72
2022/05/26 01:21:57;;;;;;;5.53;2.00;;;;;;;;;;5027870;28;20049;-70
2022/05/26 01:24:42;;;;;;;6.15;2.10;;;;;;;;;;5027636;28;20404;-70
2022/05/26 01:27:28;;;;;;;;;;;;;;;;;;5028094;28;20049;-70
2022/05/26 01:30:20;;;;;;;6.53;1.90;;;;;;;;;;5030391;28;19921;-70
2022/05/26 01:33:03;;;;;;;4.35;1.90;;;;;;;;;;5037612;28;20044;-70
2022/05/26 01:35:35;;;;;;;6.60;1.90;;;;;;;;;;5020894;28;20436;-68
2022/05/26 01:38:31;;;;;;;4.35;2.15;;;;;;;;;;5028332;28;20045;-71
2022/05/26 01:40:56;;;;;;;;;;;;;;;;;;5008045;28;20068;-70
2022/05/26 01:43:38;;;;;;;3.75;1.65;;;;;;;;;;5007159;28;20023;-72
2022/05/26 01:46:16;;;;;;;3.97;1.85;;;;;;;;;;5015537;28;20118;-71
2022/05/26 01:48:44;;;;;;;5.05;1.70;;;;;;;;;;5014965;28;20045;-70
2022/05/26 01:51:20;;;;;;;2.75;1.65;;;;;;;;;;5015168;28;20045;-70
2022/05/26 01:53:54;;;;;;;5.40;1.67;;;;;;;;;;5005085;28;20125;-69
2022/05/26 01:56:36;;;;;;;;;;;;;;;;;;4999623;28;20151;-69
2022/05/26 01:59:11;;;;;;;2.65;1.85;;;;;;;;;;5007740;28;19921;-72
2022/05/26 02:01:44;;;;;;;4.50;1.63;;;;;;;;;;5004917;28;20085;-70
2022/05/26 02:04:22;;;;;;;4.05;1.55;;;;;;;;;;5007016;28;20042;-69
2022/05/26 02:07:17;;;;;;;4.65;1.60;;;;;;;;;;5006871;28;20046;-70
2022/05/26 02:09:44;;;;;;;2.95;1.20;;;;;;;;;;5012523;28;20200;-69
2022/05/26 02:12:20;;;;;;;1.33;1.02;;;;;;;;;;5011186;28;20038;-69
2022/05/26 02:15:02;;;;;;;4.45;1.40;;;;;;;;;;5004976;28;20053;-69
2022/05/26 02:17:34;;;;;;;5.20;1.27;;;;;;;;;;5013882;28;20060;-71
2022/05/26 02:20:14;;;;;;;2.10;1.20;;;;;;;;;;5028120;28;20135;-71
2022/05/26 02:22:50;;;;;;;2.85;1.13;;;;;;;;;;5026386;28;20041;-69
2022/05/26 02:25:22;;;;;;;4.10;1.25;;;;;;;;;;5026406;28;20445;-70
2022/05/26 02:27:53;;;;;;;3.55;1.25;;;;;;;;;;5026604;28;20402;-70
2022/05/26 02:30:21;;;;;;;1.67;0.98;;;;;;;;;;5022353;28;20581;-70
2022/05/26 02:32:50;;;;;;;2.65;1.00;;;;;;;;;;5028005;28;20376;-70
2022/05/26 02:35:22;;;;;;;3.80;0.88;;;;;;;;;;5027313;28;20050;-70
2022/05/26 02:37:51;;;;;;;1.77;1.10;;;;;;;;;;5019975;28;20131;-70
2022/05/26 02:40:17;;;;;;;1.92;1.10;;;;;;;;;;5028321;28;20403;-70
2022/05/26 02:42:48;;;;;;;2.28;1.10;;;;;;;;;;5025912;28;20064;-69
2022/05/26 02:45:34;;;;;;;1.90;1.05;;;;;;;;;;5025010;28;20057;-70
2022/05/26 02:48:21;;;;;;;1.35;0.82;;;;;;;;;;5026228;28;20192;-70
2022/05/26 02:51:08;;;;;;;2.30;1.05;;;;;;;;;;5029579;28;20045;-70
2022/05/26 02:53:59;;;;;;;1.83;0.88;;;;;;;;;;5028242;28;20056;-68
2022/05/26 02:56:51;;;;;;;1.15;0.70;;;;;;;;;;5024100;28;20089;-68
2022/05/26 02:59:35;;;;;;;3.45;0.90;;;;;;;;;;5022549;28;20064;-69
2022/05/26 03:02:07;;;;;;;3.72;1.23;;;;;;;;;;5028132;28;20046;-69
2022/05/26 03:04:43;;;;;;;1.50;0.98;;;;;;;;;;5029818;28;20049;-69
2022/05/26 03:07:30;;;;;;;7.40;1.35;;;;;;;;;;5025983;28;20116;-69
2022/05/26 03:09:56;;;;;;;2.78;1.25;;;;;;;;;;5028693;28;20045;-70
2022/05/26 03:12:33;;;;;;;5.65;1.40;;;;;;;;;;5027615;28;20056;-69
2022/05/26 03:15:00;;;;;;;5.15;1.42;;;;;;;;;;5028672;28;20149;-70
2022/05/26 03:17:26;;;;;;;2.95;1.23;;;;;;;;;;5027850;28;20056;-70
2022/05/26 03:19:51;;;;;;;4.97;1.40;;;;;;;;;;5026322;28;20041;-70
2022/05/26 03:22:18;;;;;;;10.65;1.88;;;;;;;;;;5021369;28;20048;-71
2022/05/26 03:24:44;;;;;;;4.55;1.60;;;;;;;;;;5026498;28;20077;-70
2022/05/26 03:27:10;;;;;;;5.47;1.60;;;;;;;;;;5020989;28;20076;-68
2022/05/26 03:29:36;;;;;;;3.53;1.50;;;;;;;;;;5029651;28;20105;-70
2022/05/26 03:32:03;;;;;;;4.28;1.48;;;;;;;;;;5026544;28;20539;-70
2022/05/26 03:42:44;;;;;;;6.90;2.33;;;;;;;;;;5032893;28;20037;-69
2022/05/26 03:45:12;;;;;;;3.38;1.40;;;;;;;;;;5026927;28;20400;-69
2022/05/26 03:47:39;;;;;;;4.38;1.33;;;;;;;;;;5023369;28;20098;-71
2022/05/26 03:50:07;;;;;;;5.78;1.15;;;;;;;;;;5026214;28;20037;-70
2022/05/26 03:52:33;;;;;;;1.80;1.20;;;;;;;;;;5030974;28;20045;-71
2022/05/26 03:54:58;;;;;;;3.95;1.20;;;;;;;;;;5028605;28;20064;-69
2022/05/26 03:57:26;;;;;;;3.20;0.98;;;;;;;;;;5024412;28;20060;-69
2022/05/26 03:59:52;;;;;;;3.33;1.20;;;;;;;;;;5024716;28;20053;-70
2022/05/26 04:02:18;;;;;;;2.90;1.05;;;;;;;;;;5022730;28;20045;-70
2022/05/26 04:04:44;;;;;;;1.73;1.08;;;;;;;;;;5033642;28;20387;-70
2022/05/26 04:07:11;;;;;;;5.72;1.05;;;;;;;;;;5028935;28;20049;-70
2022/05/26 04:09:37;;;;;;;1.52;1.10;;;;;;;;;;5024811;28;20103;-71
2022/05/26 04:12:05;;;;;;;7.38;1.05;;;;;;;;;;5033330;28;20041;-69
2022/05/26 04:14:31;;;;;;;2.38;1.33;;;;;;;;;;5031660;28;20088;-69
2022/05/26 04:16:58;;;;;;;4.55;1.13;;;;;;;;;;5027382;28;20051;-71
2022/05/26 04:19:25;;;;;;;2.42;1.00;;;;;;;;;;5026901;28;20433;-70
2022/05/26 04:24:35;;;;;;;1.77;1.05;;;;;;;;;;5028546;28;20045;-70
2022/05/26 04:27:02;;;;;;;8.55;0.90;;;;;;;;;;5025316;28;20067;-69
2022/05/26 04:29:29;;;;;;;2.47;1.00;;;;;;;;;;5024331;28;20376;-70
2022/05/26 04:31:55;;;;;;;2.00;1.02;;;;;;;;;;5025149;28;20087;-71
2022/05/26 04:34:21;;;;;;;3.53;0.90;;;;;;;;;;5025253;28;20041;-72
2022/05/26 04:36:47;;;;;;;4.78;0.98;;;;;;;;;;5022388;28;20072;-70
2022/05/26 04:39:14;;;;;;;7.43;0.98;;;;;;;;;;5020937;28;20065;-71
2022/05/26 04:41:44;;;;;;;5.57;1.02;;;;;;;;;;5006455;28;20057;-73
2022/05/26 04:44:15;;;;;;;4.55;1.02;;;;;;;;;;5006104;28;20281;-69
2022/05/26 04:46:42;;;;;;;3.92;1.20;;;;;;;;;;5008519;28;20038;-70
2022/05/26 04:49:08;;;;;;;6.45;0.95;;;;;;;;;;5015080;28;20049;-70
2022/05/26 04:51:36;;;;;;;4.95;1.00;;;;;;;;;;5016272;28;20192;-69
2022/05/26 04:54:03;;;;;;;5.72;1.08;;;;;;;;;;5011841;28;21574;-70
2022/05/26 04:56:31;;;;;;;2.65;0.90;;;;;;;;;;5012264;28;20056;-69
2022/05/26 04:58:57;;;;;;;4.28;0.93;;;;;;;;;;5017562;28;20692;-66
2022/05/26 05:01:25;;;;;;;6.25;1.48;;;;;;;;;;5012986;28;20058;-69
2022/05/26 05:03:51;;;;;;;5.00;1.20;;;;;;;;;;5011607;28;20081;-69
2022/05/26 05:06:17;;;;;;;7.38;1.27;;;;;;;;;;5007663;28;21477;-68
2022/05/26 05:08:44;;;;;;;9.45;1.52;;;;;;;;;;5016344;28;20049;-70
2022/05/26 05:11:11;;;;;;;5.30;1.30;;;;;;;;;;5011385;28;20057;-69
2022/05/26 05:13:38;;;;;;;7.55;1.77;;;;;;;;;;5011571;28;20495;-69
2022/05/26 05:16:12;;;;;;;8.23;1.70;;;;;;;;;;5018480;28;20041;-68
2022/05/26 05:18:37;;;;;;;9.38;1.70;;;;;;;;;;5015921;28;20246;-69
2022/05/26 05:21:08;;;;;;;14.27;1.92;;;;;;;;;;5010305;28;20053;-68
2022/05/26 05:23:39;;;;;;;10.35;2.15;;;;;;;;;;5018235;28;20265;-72
2022/05/26 05:26:12;;;;;;;13.57;2.05;;;;;;;;;;5015000;28;20548;-75
2022/05/26 05:28:42;;;;;;;6.78;1.88;;;;;;;;;;5010802;28;20054;-71
2022/05/26 05:31:20;;;;;;;6.55;2.15;;;;;;;;;;5009428;28;20046;-70
2022/05/26 05:33:50;;;;;;;5.07;1.90;;;;;;;;;;5011822;28;20069;-71
2022/05/26 05:36:25;;;;;;;5.57;1.95;;;;;;;;;;5013544;28;20038;-71
2022/05/26 05:38:52;;;;;;;7.50;1.77;;;;;;;;;;5016761;28;20502;-69
2022/05/26 05:41:20;;;;;;;7.20;1.90;;;;;;;;;;5009885;28;20049;-69
2022/05/26 05:43:46;;;;;;;9.32;1.83;;;;;;;;;;5014851;28;20049;-73
2022/05/26 05:46:14;;;;;;;12.35;2.20;;;;;;;;;;5013561;28;20316;-70
2022/05/26 05:48:43;;;;;;;11.95;2.30;;;;;;;;;;5015736;28;20095;-69
2022/05/26 05:51:10;;;;;;;11.00;2.25;;;;;;;;;;5013067;28;20046;-69
2022/05/26 05:53:37;;;;;;;9.85;2.20;;;;;;;;;;5011090;28;20135;-68
2022/05/26 05:56:03;;;;;;;7.70;2.10;;;;;;;;;;5012395;28;20061;-71
2022/05/26 05:58:29;;;;;;;9.77;2.05;;;;;;;;;;5012606;28;20049;-68
2022/05/26 06:00:55;;;;;;;11.85;2.28;;;;;;;;;;5014344;28;20515;-68
2022/05/26 06:03:21;;;;;;;7.65;2.10;;;;;;;;;;5017514;28;20053;-69
2022/05/26 06:05:47;;;;;;;4.18;1.80;;;;;;;;;;5016435;28;20037;-73
2022/05/26 06:08:13;;;;;;;8.95;2.35;;;;;;;;;;5018327;28;20056;-72
2022/05/26 06:10:39;;;;;;;5.72;2.65;;;;;;;;;;5014618;28;20532;-70
2022/05/26 06:13:05;;;;;;;10.05;2.90;;;;;;;;;;5012057;28;20041;-69
2022/05/26 06:15:33;;;;;;;10.48;3.47;;;;;;;;;;5014307;28;20065;-71
2022/05/26 06:17:59;;;;;;;14.65;3.35;;;;;;;;;;5017095;28;20386;-71
2022/05/26 06:20:26;;;;;;;10.52;2.95;;;;;;;;;;5014345;28;20053;-70
2022/05/26 06:22:52;;;;;;;4.93;2.67;;;;;;;;;;5016862;28;20589;-70
2022/05/26 06:25:19;;;;;;;7.35;2.50;;;;;;;;;;5017366;28;20049;-71
2022/05/26 06:30:30;;;;;;;;;;;;;;;;;;5013464;28;20409;-72
2022/05/26 06:38:34;;;;;;;7.10;2.75;;;;;;;;;;5010254;28;20045;-71
2022/05/26 06:42:05;;;;;;;8.07;2.70;;;;;;;;;;5005943;28;20053;-65
2022/05/26 06:43:47;;;;;;;5.28;2.50;;;;;;;;;;5026422;28;20045;-65
2022/05/26 06:46:13;;;;;;;9.82;2.55;;;;;;;;;;5008343;28;20057;-63
2022/05/26 06:48:39;;;;;;;5.45;2.40;;;;;;;;;;5011744;28;20249;-63
2022/05/26 06:51:06;;;;;;;9.00;1.83;;;;;;;;;;5022541;28;20130;-64
2022/05/26 06:53:33;;;;;;;2.83;1.35;;;;;;;;;;5034247;28;20048;-64
2022/05/26 06:55:59;;;;;;;6.00;1.83;;;;;;;;;;5030142;28;20124;-64
2022/05/26 06:58:26;;;;;;;3.92;1.40;;;;;;;;;;5029239;28;20136;-68
2022/05/26 07:00:52;;;;;;;4.32;1.40;;;;;;;;;;5029403;28;20420;-64
2022/05/26 07:03:18;;;;;;;2.90;1.15;;;;;;;;;;5038553;28;20116;-65
2022/05/26 07:05:44;;;;;;;6.47;1.60;;;;;;;;;;5033542;28;20139;-66
2022/05/26 07:08:10;;;;;;;3.08;1.05;;;;;;;;;;5031524;28;20048;-64
2022/05/26 07:10:37;;;;;;;4.07;1.55;;;;;;;;;;5033800;28;20051;-64
2022/05/26 07:13:04;;;;;;;4.43;1.20;;;;;;;;;;5036140;28;20349;-65
2022/05/26 07:15:30;;;;;;;6.38;1.90;;;;;;;;;;5062113;28;20044;-64
2022/05/26 07:17:55;;;;;;;5.45;1.30;;;;;;;;;;5036771;28;20045;-67
2022/05/26 07:20:21;;;;;;;4.75;1.35;;;;;;;;;;5037678;28;20052;-67
2022/05/26 07:22:47;;;;;;;3.60;1.35;;;;;;;;;;5022433;28;20046;-66
2022/05/26 07:25:13;;;;;;;4.03;1.30;;;;;;;;;;5026749;28;20045;-67
2022/05/26 07:27:39;;;;;;;5.72;1.20;;;;;;;;;;5050500;28;20060;-69
2022/05/26 07:30:06;;;;;;;3.08;1.75;;;;;;;;;;5052137;28;20077;-69
2022/05/26 07:32:31;;;;;;;7.13;1.50;;;;;;;;;;5049983;28;20128;-71
2022/05/26 07:34:57;;;;;;;9.77;2.17;;;;;;;;;;5020818;28;20132;-70
2022/05/26 07:42:55;;;;;;;8.57;1.67;;;;;;;;;;5025561;28;20389;-72
2022/05/26 07:45:22;;;;;;;7.55;2.25;;;;;;;;;;5029539;28;20045;-71
2022/05/26 07:47:48;;;;;;;2.78;1.35;;;;;;;;;;5028269;28;20076;-71
2022/05/26 07:50:21;;;;;;;5.60;1.40;;;;;;;;;;5023978;28;20164;-70
2022/05/26 07:52:50;;;;;;;5.82;1.80;;;;;;;;;;5034419;28;20072;-72
2022/05/26 07:55:18;;;;;;;4.30;1.20;;;;;;;;;;5020009;28;20041;-72
2022/05/26 07:57:44;;;;;;;5.78;1.40;;;;;;;;;;5025062;28;20092;-70
2022/05/26 08:00:13;;;;;;;10.82;1.42;;;;;;;;;;5026091;28;20053;-73
2022/05/26 08:02:40;;;;;;;6.70;1.65;;;;;;;;;;5026644;28;20078;-71
2022/05/26 08:05:08;;;;;;;5.63;1.50;;;;;;;;;;5013462;28;20038;-71
2022/05/26 08:07:34;;;;;;;3.88;1.48;;;;;;;;;;5022105;28;20055;-71
2022/05/26 08:10:01;;;;;;;5.47;1.55;;;;;;;;;;5024200;28;20403;-70
2022/05/26 08:12:27;;;;;;;6.32;1.90;;;;;;;;;;5022889;28;20053;-71
2022/05/26 08:14:53;;;;;;;6.10;1.23;;;;;;;;;;5021238;28;20053;-74
2022/05/26 08:17:20;;;;;;;5.63;1.50;;;;;;;;;;5025736;28;20045;-72
2022/05/26 08:19:46;;;;;;;2.85;1.52;;;;;;;;;;5027944;28;20422;-72
2022/05/26 08:22:17;;;;;;;5.93;1.23;;;;;;;;;;5028395;28;20563;-70
2022/05/26 08:24:52;;;;;;;5.00;1.77;;;;;;;;;;5026236;28;20048;-71
2022/05/26 08:27:18;;;;;;;5.75;1.67;;;;;;;;;;5027603;28;20112;-71
2022/05/26 08:29:44;;;;;;;6.40;1.50;;;;;;;;;;5026179;28;20099;-71
2022/05/26 08:32:10;;;;;;;8.27;1.73;;;;;;;;;;5021331;28;20050;-70
2022/05/26 08:34:36;;;;;;;5.47;1.60;;;;;;;;;;5035108;28;20048;-73
2022/05/26 08:37:03;;;;;;;7.78;1.65;;;;;;;;;;5026957;28;20045;-74
2022/05/26 08:39:32;;;;;;;7.53;1.48;;;;;;;;;;5019568;28;20041;-72
2022/05/26 08:41:58;;;;;;;3.47;1.10;;;;;;;;;;5031574;28;20582;-71
2022/05/26 08:44:36;;;;;;;6.20;1.45;;;;;;;;;;5025145;28;20049;-70
2022/05/26 08:47:12;;;;;;;2.45;1.30;;;;;;;;;;5022725;28;20053;-71
2022/05/26 08:49:51;;;;;;;3.03;1.40;;;;;;;;;;5030602;28;20053;-71
2022/05/26 08:52:23;;;;;;;5.82;2.25;;;;;;;;;;5024354;28;20052;-72
2022/05/26 08:54:56;;;;;;;3.55;1.30;;;;;;;;;;5028590;28;20510;-68
2022/05/26 08:57:30;;;;;;;5.05;1.38;;;;;;;;;;5034963;28;20053;-70
2022/05/26 08:59:56;;;;;;;3.35;1.50;;;;;;;;;;5028408;28;20034;-70
2022/05/26 09:02:31;;;;;;;1.95;1.27;;;;;;;;;;5025618;28;20107;-73
2022/05/26 09:05:01;;;;;;;4.50;2.17;;;;;;;;;;5037395;28;20095;-70
2022/05/26 09:13:13;;;;;;;4.30;1.40;;;;;;;;;;5026944;28;20282;-72
2022/05/26 09:15:40;;;;;;;3.42;1.50;;;;;;;;;;5036162;28;20053;-69
2022/05/26 09:18:20;;;;;;;9.25;2.20;;;;;;;;;;5023535;28;20038;-73
2022/05/26 09:20:48;;;;;;;4.20;1.73;;;;;;;;;;5023264;28;20107;-74
2022/05/26 09:23:28;;;;;;;737.53;49.13;;;;;;;;;;5025952;28;20089;-70
2022/05/26 09:26:07;;;;;;;5.75;2.30;;;;;;;;;;5039185;28;20050;-72
2022/05/26 09:28:50;;;;;;;5.57;1.95;;;;;;;;;;5028898;28;20073;-73
2022/05/26 09:31:31;;;;;;;9.73;1.63;;;;;;;;;;5046102;28;20052;-73
2022/05/26 09:34:00;;;;;;;4.90;1.20;;;;;;;;;;5044959;28;20122;-71
2022/05/26 09:36:30;;;;;;;5.78;1.40;;;;;;;;;;5029128;28;20037;-71
2022/05/26 09:38:57;;;;;;;3.83;1.73;;;;;;;;;;5034644;28;20044;-69
2022/05/26 09:41:23;;;;;;;2.85;1.50;;;;;;;;;;5039733;28;20079;-72
2022/05/26 09:43:53;;;;;;;7.22;1.42;;;;;;;;;;5039383;28;20038;-73
2022/05/26 09:46:24;;;;;;;4.07;1.60;;;;;;;;;;5030236;28;20041;-71
2022/05/26 09:49:08;;;;;;;3.25;1.60;;;;;;;;;;5038338;28;20056;-71
2022/05/26 09:51:43;;;;;;;6.47;1.50;;;;;;;;;;5040023;28;20048;-72
2022/05/26 09:54:38;;;;;;;6.20;1.70;;;;;;;;;;5035244;28;20041;-71
2022/05/26 09:57:33;;;;;;;5.25;2.08;;;;;;;;;;5027428;28;20049;-74
2022/05/26 09:59:59;;;;;;;5.47;2.15;;;;;;;;;;5026914;28;20073;-70
2022/05/26 10:02:39;;;;;;;7.00;2.15;;;;;;;;;;5036346;28;20049;-73
2022/05/26 10:05:29;;;;;;;5.72;1.17;;;;;;;;;;5034187;28;20067;-71
2022/05/26 10:08:05;;;;;;;3.17;1.10;;;;;;;;;;5047890;28;20045;-73
2022/05/26 10:10:38;;;;;;;3.45;1.20;;;;;;;;;;5032387;28;20073;-73
2022/05/26 10:13:19;;;;;;;2.65;1.15;;;;;;;;;;5037058;28;20307;-72
2022/05/26 10:16:17;;;;;;;8.70;1.80;;;;;;;;;;5034705;28;20049;-73
2022/05/26 10:19:21;;;;;;;4.63;1.58;;;;;;;;;;5036317;28;20537;-72
2022/05/26 10:22:12;;;;;;;8.88;1.73;;;;;;;;;;5024192;28;20042;-73
2022/05/26 10:24:54;;;;;;;5.72;2.00;;;;;;;;;;5040971;28;20053;-73
2022/05/26 10:27:28;;;;;;;4.78;1.80;;;;;;;;;;5025607;28;20506;-73
2022/05/26 10:30:31;;;;;;;4.63;1.60;;;;;;;;;;5033585;28;20137;-73
2022/05/26 10:33:15;;;;;;;5.88;1.42;;;;;;;;;;5037811;28;20411;-74
2022/05/26 10:36:00;;;;;;;;;;;;;;;;;;5038660;28;20099;-72
2022/05/26 10:38:34;;;;;;;4.43;1.63;;;;;;;;;;5029285;28;19985;-75
2022/05/26 10:41:03;;;;;;;;;;;;;;;;;;5044277;28;20052;-72
2022/05/26 10:43:46;;;;;;;2.67;1.30;;;;;;;;;;5049717;28;20354;-73
2022/05/26 10:46:13;;;;;;;9.27;2.15;;;;;;;;;;5046228;28;20048;-74
2022/05/26 10:48:54;;;;;;;6.18;1.80;;;;;;;;;;5035514;28;20403;-72
2022/05/26 10:51:34;;;;;;;7.07;2.25;;;;;;;;;;5031424;28;20566;-74
2022/05/26 10:54:07;;;;;;;8.98;2.05;;;;;;;;;;5027303;28;20053;-74
2022/05/26 10:56:58;;;;;;;5.23;1.53;;;;;;;;;;5030622;28;20125;-73
2022/05/26 10:59:58;;;;;;;5.90;2.00;;;;;;;;;;5022243;28;20438;-73
2022/05/26 11:02:36;;;;;;;9.90;2.25;;;;;;;;;;5028656;28;20050;-68
2022/05/26 11:05:17;;;;;;;7.55;1.95;;;;;;;;;;5026212;28;20136;-73
2022/05/26 11:07:53;;;;;;;6.55;2.00;;;;;;;;;;5031760;28;20045;-72
2022/05/26 11:10:34;;;;;;;8.18;1.80;;;;;;;;;;5029070;28;20045;-71
2022/05/26 11:13:25;;;;;;;11.90;1.60;;;;;;;;;;5034961;28;20146;-72
2022/05/26 11:19:01;;;;;;;5.32;1.65;;;;;;;;;;5030141;28;20115;-72
2022/05/26 11:21:26;;;;;;;5.43;1.60;;;;;;;;;;5020704;28;20045;-73
2022/05/26 11:23:53;;;;;;;3.80;1.55;;;;;;;;;;5039399;28;20115;-73
2022/05/26 11:26:52;;;;;;;11.07;1.92;;;;;;;;;;5029948;28;20045;-72
2022/05/26 11:29:28;;;;;;;7.60;1.50;;;;;;;;;;5029686;28;20051;-71
2022/05/26 11:37:57;;;;;;;3.10;1.42;;;;;;;;;;5032420;28;20045;-72
2022/05/26 11:40:35;;;;;;;3.28;1.48;;;;;;;;;;5025842;28;20061;-72
2022/05/26 11:43:07;;;;;;;10.73;1.98;;;;;;;;;;5023884;28;20037;-73
2022/05/26 11:45:37;;;;;;;9.00;1.63;;;;;;;;;;5031999;28;20076;-73
2022/05/26 11:48:05;;;;;;;5.38;1.35;;;;;;;;;;5051010;28;20124;-71
2022/05/26 11:50:43;;;;;;;9.85;2.75;;;;;;;;;;5028609;28;20136;-73
2022/05/26 11:53:32;;;;;;;8.70;1.73;;;;;;;;;;5021426;28;20084;-72
2022/05/26 11:56:04;;;;;;;10.68;2.08;;;;;;;;;;5025113;28;20552;-73
2022/05/26 11:58:42;;;;;;;4.68;1.80;;;;;;;;;;5028402;28;20099;-76
2022/05/26 12:04:50;;;;;;;6.03;1.83;;;;;;;;;;5025322;28;20060;-74
2022/05/26 12:07:18;;;;;;;4.47;1.60;;;;;;;;;;5030409;28;20049;-72
2022/05/26 12:09:57;;;;;;;5.90;1.60;;;;;;;;;;5036099;28;20073;-72
2022/05/26 12:12:23;;;;;;;8.95;1.80;;;;;;;;;;5027302;28;20057;-72
2022/05/26 12:14:55;;;;;;;12.40;1.80;;;;;;;;;;5034162;28;20498;-73
2022/05/26 12:17:36;;;;;;;4.63;1.65;;;;;;;;;;5028426;28;20064;-72
2022/05/26 12:20:11;;;;;;;5.22;2.10;;;;;;;;;;5022697;28;20561;-72
2022/05/26 12:22:37;;;;;;;5.22;1.50;;;;;;;;;;5025122;28;20480;-72
2022/05/26 12:25:28;;;;;;;6.80;1.65;;;;;;;;;;5044271;28;20045;-74
2022/05/26 12:27:59;;;;;;;7.63;1.55;;;;;;;;;;5029181;28;20059;-76
2022/05/26 12:30:41;;;;;;;3.65;1.30;;;;;;;;;;5029660;28;20052;-70
2022/05/26 12:33:22;;;;;;;6.75;1.30;;;;;;;;;;5033904;28;20049;-73
2022/05/26 12:36:03;;;;;;;6.15;1.52;;;;;;;;;;5026461;28;20411;-72
2022/05/26 12:39:05;;;;;;;3.50;1.35;;;;;;;;;;5030015;28;20042;-73
2022/05/26 12:41:53;;;;;;;7.38;1.40;;;;;;;;;;5031425;28;20199;-71
2022/05/26 12:44:54;;;;;;;5.68;1.35;;;;;;;;;;5022768;28;20475;-73
2022/05/26 12:47:38;;;;;;;6.13;2.00;;;;;;;;;;5021236;28;20051;-75
2022/05/26 12:50:09;;;;;;;3.60;1.50;;;;;;;;;;5024892;28;20103;-75
2022/05/26 12:52:43;;;;;;;4.88;1.75;;;;;;;;;;5030115;28;20526;-72
2022/05/26 12:55:30;;;;;;;5.07;1.53;;;;;;;;;;5027128;28;20045;-73
2022/05/26 12:58:16;;;;;;;4.70;1.35;;;;;;;;;;5023551;28;20381;-73
2022/05/26 13:00:48;;;;;;;7.35;1.10;;;;;;;;;;5037584;28;20441;-71
2022/05/26 13:03:30;;;;;;;3.03;1.10;;;;;;;;;;5033662;28;20286;-71
2022/05/26 13:06:26;;;;;;;6.30;1.35;;;;;;;;;;5025985;28;20196;-72
2022/05/26 13:09:16;;;;;;;3.95;1.00;;;;;;;;;;5027175;28;20073;-74
2022/05/26 13:11:50;;;;;;;2.75;1.13;;;;;;;;;;5027433;28;20049;-73
2022/05/26 13:14:44;;;;;;;2.80;0.88;;;;;;;;;;5021380;28;20054;-74
2022/05/26 13:17:09;;;;;;;4.22;1.10;;;;;;;;;;5026444;28;20843;-72
2022/05/26 13:19:54;;;;;;;4.68;1.00;;;;;;;;;;5032327;28;20498;-74
2022/05/26 13:22:36;;;;;;;;;;;;;;;;;;5031756;28;20080;-71
2022/05/26 13:25:12;;;;;;;6.75;1.50;;;;;;;;;;5033507;28;19963;-72
2022/05/26 13:27:43;;;;;;;4.90;1.13;;;;;;;;;;5028406;28;20037;-74
2022/05/26 13:33:08;;;;;;;7.35;1.20;;;;;;;;;;5027024;28;20515;-72
2022/05/26 13:35:43;;;;;;;10.30;1.10;;;;;;;;;;5027246;28;20341;-71
2022/05/26 13:38:21;;;;;;;5.15;0.90;;;;;;;;;;5029477;28;20049;-72
2022/05/26 13:40:48;;;;;;;11.75;1.63;;;;;;;;;;5026303;28;20057;-71
2022/05/26 13:43:16;;;;;;;7.70;1.30;;;;;;;;;;5033248;28;20059;-74
2022/05/26 13:45:43;;;;;;;6.30;1.17;;;;;;;;;;5028688;28;20499;-73
2022/05/26 13:48:43;;;;;;;16.23;1.40;;;;;;;;;;5027815;28;20061;-74
2022/05/26 13:51:17;;;;;;;5.82;1.35;;;;;;;;;;5015526;28;20049;-73
2022/05/26 13:53:46;;;;;;;8.20;1.20;;;;;;;;;;5023215;28;20087;-73
2022/05/26 13:56:31;;;;;;;4.32;1.00;;;;;;;;;;5033199;28;20124;-74
2022/05/26 13:58:59;;;;;;;10.75;1.10;;;;;;;;;;5026904;28;20499;-73
2022/05/26 14:01:26;;;;;;;6.40;1.08;;;;;;;;;;5024689;28;20049;-73
2022/05/26 14:03:58;;;;;;;9.95;1.70;;;;;;;;;;5023319;28;20073;-75
2022/05/26 14:06:34;;;;;;;7.38;1.60;;;;;;;;;;5031611;28;20048;-73
2022/05/26 14:09:03;;;;;;;11.25;1.20;;;;;;;;;;5024803;28;20064;-74
2022/05/26 14:11:35;;;;;;;6.05;1.15;;;;;;;;;;5024900;28;20080;-74
2022/05/26 14:14:31;;;;;;;6.45;1.00;;;;;;;;;;5023176;28;20042;-73
2022/05/26 14:17:00;;;;;;;6.97;1.30;;;;;;;;;;5019820;28;20395;-75
2022/05/26 14:19:32;;;;;;;13.15;1.50;;;;;;;;;;5028473;28;20107;-75
2022/05/26 14:22:00;;;;;;;19.85;1.70;;;;;;;;;;5034135;28;20274;-72
2022/05/26 14:24:33;;;;;;;12.43;1.40;;;;;;;;;;5032056;28;20535;-74
2022/05/26 14:27:14;;;;;;;9.73;1.40;;;;;;;;;;5032138;28;20041;-72
2022/05/26 14:29:42;;;;;;;10.57;1.52;;;;;;;;;;5029149;28;20287;-73
2022/05/26 14:32:23;;;;;;;11.20;1.73;;;;;;;;;;5029320;28;20056;-75
2022/05/26 14:35:00;;;;;;;6.93;1.83;;;;;;;;;;5036755;28;20064;-75
2022/05/26 14:37:28;;;;;;;11.65;1.63;;;;;;;;;;5031460;28;20538;-73
2022/05/26 14:39:55;;;;;;;9.88;1.55;;;;;;;;;;5031884;28;20045;-74
2022/05/26 14:42:42;;;;;;;7.25;1.77;;;;;;;;;;5030960;28;20115;-73
2022/05/26 14:45:14;;;;;;;5.97;1.75;;;;;;;;;;5029517;28;20072;-73
2022/05/26 14:47:40;;;;;;;9.52;1.30;;;;;;;;;;5022770;28;20045;-74
2022/05/26 14:50:08;;;;;;;5.13;1.60;;;;;;;;;;5022712;28;20756;-73
2022/05/26 14:52:36;;;;;;;13.02;1.60;;;;;;;;;;5028481;28;20055;-72
2022/05/26 14:57:47;;;;;;;8.40;2.15;;;;;;;;;;5048321;28;20055;-72
2022/05/26 15:00:18;;;;;;;4.07;1.40;;;;;;;;;;5049224;28;20045;-73
2022/05/26 15:02:44;;;;;;;14.60;1.58;;;;;;;;;;5043363;28;20050;-73
2022/05/26 15:05:10;;;;;;;6.38;1.63;;;;;;;;;;5031028;28;20519;-73
2022/05/26 15:07:37;;;;;;;5.20;1.10;;;;;;;;;;5023372;28;20046;-73
2022/05/26 15:10:04;;;;;;;7.78;1.45;;;;;;;;;;5024579;28;20056;-73
2022/05/26 15:12:31;;;;;;;10.85;1.40;;;;;;;;;;5027466;28;20045;-73
2022/05/26 15:14:58;;;;;;;5.25;1.02;;;;;;;;;;5020360;28;20057;-73
2022/05/26 15:17:24;;;;;;;5.70;1.50;;;;;;;;;;5020442;28;20115;-74
2022/05/26 15:19:56;;;;;;;7.97;1.70;;;;;;;;;;5016135;28;20676;-72
2022/05/26 15:22:23;;;;;;;4.65;1.27;;;;;;;;;;5021728;28;20091;-71
2022/05/26 15:24:51;;;;;;;11.88;1.42;;;;;;;;;;5023024;28;20054;-72
2022/05/26 15:27:21;;;;;;;6.03;1.42;;;;;;;;;;5024757;28;20052;-73
2022/05/26 15:29:48;;;;;;;7.55;1.80;;;;;;;;;;5024915;28;20241;-71
2022/05/26 15:32:36;;;;;;;7.15;1.50;;;;;;;;;;5022810;28;20042;-74
2022/05/26 15:35:04;;;;;;;6.80;1.30;;;;;;;;;;5026367;28;20423;-73
2022/05/26 15:37:31;;;;;;;7.60;1.40;;;;;;;;;;5024562;28;20048;-73
2022/05/26 15:39:57;;;;;;;11.48;1.80;;;;;;;;;;5026338;28;20044;-74
2022/05/26 15:42:23;;;;;;;6.43;1.92;;;;;;;;;;5030066;28;20057;-72
2022/05/26 15:44:50;;;;;;;6.65;1.45;;;;;;;;;;5029809;28;20037;-74
2022/05/26 15:47:19;;;;;;;7.20;1.90;;;;;;;;;;5025355;28;20856;-71
2022/05/26 15:49:48;;;;;;;6.00;1.98;;;;;;;;;;5033473;28;20049;-71
2022/05/26 15:52:14;;;;;;;11.27;2.03;;;;;;;;;;5033487;28;20115;-75
2022/05/26 15:54:42;;;;;;;7.03;2.17;;;;;;;;;;5022621;28;20122;-76
2022/05/26 15:57:09;;;;;;;10.57;2.50;;;;;;;;;;5026094;28;20050;-74
2022/05/26 15:59:35;;;;;;;9.52;4.53;;;;;;;;;;5033092;28;20514;-74
2022/05/26 16:02:01;;;;;;;7.57;3.35;;;;;;;;;;5018803;28;20049;-74
2022/05/26 16:04:28;;;;;;;7.50;2.30;;;;;;;;;;5019173;28;20053;-75